createdAt,value
2022-11-25T00:01:24.677Z,10.20
2022-11-25T00:04:13.086Z,10.20
2022-11-25T00:07:01.598Z,10.20
2022-11-25T00:09:49.962Z,10.20
2022-11-25T00:12:38.311Z,10.20
2022-11-25T00:15:28.037Z,10.20
2022-11-25T00:18:16.551Z,10.10
2022-11-25T00:21:07.265Z,10.10
2022-11-25T00:23:56.789Z,10.10
2022-11-25T00:26:45.201Z,10.00
2022-11-25T00:29:33.722Z,10.00
2022-11-25T00:32:23.642Z,10.00
2022-11-25T00:35:12.033Z,9.90
2022-11-25T00:38:01.589Z,9.90
2022-11-25T00:41:13.921Z,9.90
2022-11-25T00:44:20.061Z,9.90
2022-11-25T00:47:10.566Z,9.80
2022-11-25T00:50:00.331Z,9.80
2022-11-25T00:52:48.943Z,9.80
2022-11-25T00:55:51.362Z,9.80
2022-11-25T00:58:39.816Z,9.70
2022-11-25T01:01:28.480Z,9.70
2022-11-25T01:04:17.004Z,9.70
2022-11-25T01:07:06.819Z,9.70
2022-11-25T01:09:56.984Z,9.60
2022-11-25T01:12:48.627Z,9.60
2022-11-25T01:15:38.322Z,9.60
2022-11-25T01:18:26.757Z,9.60
2022-11-25T01:21:16.563Z,9.60
2022-11-25T01:24:08.957Z,9.50
2022-11-25T01:26:57.686Z,9.50
2022-11-25T01:29:46.194Z,9.50
2022-11-25T01:32:35.122Z,9.40
2022-11-25T01:35:23.704Z,9.40
2022-11-25T01:38:12.085Z,9.40
2022-11-25T01:41:01.940Z,9.40
2022-11-25T01:44:12.187Z,9.30
2022-11-25T01:47:05.023Z,9.30
2022-11-25T01:49:58.662Z,9.30
2022-11-25T01:52:47.888Z,9.30
2022-11-25T01:55:40.115Z,9.30
2022-11-25T01:58:31.407Z,9.30
2022-11-25T02:01:21.758Z,9.30
2022-11-25T02:04:10.318Z,9.30
2022-11-25T02:07:00.685Z,9.30
2022-11-25T02:09:49.085Z,9.30
2022-11-25T02:12:39.032Z,9.40
2022-11-25T02:15:29.810Z,9.40
2022-11-25T02:18:18.357Z,9.40
2022-11-25T02:21:07.522Z,9.40
2022-11-25T02:23:59.637Z,9.40
2022-11-25T02:26:49.419Z,9.40
2022-11-25T02:29:37.923Z,9.40
2022-11-25T02:32:27.286Z,9.40
2022-11-25T02:35:29.501Z,9.40
2022-11-25T02:38:20.439Z,9.50
2022-11-25T02:41:11.550Z,9.50
2022-11-25T02:44:02.370Z,9.50
2022-11-25T02:46:50.780Z,9.50
2022-11-25T02:49:40.767Z,9.60
2022-11-25T02:52:29.292Z,9.60
2022-11-25T02:55:17.957Z,9.60
2022-11-25T02:58:07.523Z,9.70
2022-11-25T03:00:57.420Z,9.80
2022-11-25T03:03:45.941Z,9.90
2022-11-25T03:06:34.519Z,10.00
2022-11-25T03:09:22.961Z,10.10
2022-11-25T03:12:20.576Z,10.20
2022-11-25T03:15:10.368Z,10.20
2022-11-25T03:18:00.120Z,10.30
2022-11-25T03:20:53.111Z,10.40
2022-11-25T03:23:41.537Z,10.40
2022-11-25T03:26:29.937Z,10.50
2022-11-25T03:29:18.337Z,10.60
2022-11-25T03:32:09.622Z,10.60
2022-11-25T03:35:00.933Z,10.70
2022-11-25T03:37:49.514Z,10.80
2022-11-25T03:40:38.024Z,10.80
2022-11-25T03:43:26.749Z,10.90
2022-11-25T03:46:15.238Z,10.90
2022-11-25T03:49:03.784Z,11.00
2022-11-25T03:51:53.583Z,11.00
2022-11-25T03:54:42.845Z,11.10
2022-11-25T03:57:36.499Z,11.10
2022-11-25T04:00:25.082Z,11.20
2022-11-25T04:03:20.801Z,11.20
2022-11-25T04:06:09.378Z,11.20
2022-11-25T04:08:59.236Z,11.20
2022-11-25T04:12:05.545Z,11.20
2022-11-25T04:15:04.605Z,11.20
2022-11-25T04:17:53.363Z,11.30
2022-11-25T04:20:42.062Z,11.30
2022-11-25T04:23:30.702Z,11.30
2022-11-25T04:26:26.794Z,11.30
2022-11-25T04:29:15.571Z,11.30
2022-11-25T04:32:05.949Z,11.20
2022-11-25T04:34:54.468Z,11.20
2022-11-25T04:37:43.496Z,11.20
2022-11-25T04:40:31.914Z,11.10
2022-11-25T04:43:34.629Z,11.10
2022-11-25T04:46:32.617Z,11.10
2022-11-25T04:49:21.041Z,11.00
2022-11-25T04:52:09.468Z,11.00
2022-11-25T04:54:58.175Z,10.90
2022-11-25T04:57:46.639Z,10.90
2022-11-25T05:00:37.185Z,10.90
2022-11-25T05:03:27.455Z,10.90
2022-11-25T05:06:15.903Z,10.90
2022-11-25T05:09:04.783Z,10.80
2022-11-25T05:11:55.893Z,10.80
2022-11-25T05:14:44.345Z,10.80
2022-11-25T05:17:34.296Z,10.70
2022-11-25T05:20:23.066Z,10.70
2022-11-25T05:23:11.541Z,10.70
2022-11-25T05:26:01.347Z,10.70
2022-11-25T05:28:59.477Z,10.70
2022-11-25T05:31:47.877Z,10.70
2022-11-25T05:34:38.856Z,10.60
2022-11-25T05:37:28.318Z,10.70
2022-11-25T05:40:23.405Z,10.60
2022-11-25T05:43:19.235Z,10.50
2022-11-25T05:46:08.049Z,10.50
2022-11-25T05:48:59.568Z,10.40
2022-11-25T05:51:49.357Z,10.40
2022-11-25T05:54:40.293Z,10.30
2022-11-25T05:57:30.018Z,10.30
2022-11-25T06:00:26.771Z,10.20
2022-11-25T06:03:15.827Z,10.20
2022-11-25T06:06:04.463Z,10.20
2022-11-25T06:08:54.364Z,10.20
2022-11-25T06:11:44.550Z,10.20
2022-11-25T06:14:33.507Z,10.20
2022-11-25T06:17:22.197Z,10.20
2022-11-25T06:20:30.859Z,10.20
2022-11-25T06:23:19.305Z,10.20
2022-11-25T06:26:11.038Z,10.20
2022-11-25T06:28:59.674Z,10.30
2022-11-25T06:31:50.082Z,10.30
2022-11-25T06:34:53.407Z,10.40
2022-11-25T06:37:59.248Z,10.40
2022-11-25T06:40:47.716Z,10.40
2022-11-25T06:43:37.487Z,10.50
2022-11-25T06:46:25.966Z,10.50
2022-11-25T06:49:14.407Z,10.50
2022-11-25T06:52:03.011Z,10.50
2022-11-25T06:54:52.280Z,10.60
2022-11-25T06:57:40.681Z,10.60
2022-11-25T07:00:30.436Z,10.80
2022-11-25T07:03:18.879Z,10.70
2022-11-25T07:05:47.011Z,10.80
2022-11-25T07:08:15.125Z,10.80
2022-11-25T07:10:43.275Z,10.80
2022-11-25T07:13:11.574Z,10.90
2022-11-25T07:15:41.078Z,11.00
2022-11-25T07:18:09.210Z,11.00
2022-11-25T07:20:37.307Z,11.10
2022-11-25T07:23:05.458Z,11.10
2022-11-25T07:25:34.045Z,11.20
2022-11-25T07:28:02.183Z,11.20
2022-11-25T07:31:21.695Z,11.30
2022-11-25T07:33:19.764Z,11.40
2022-11-25T07:35:47.932Z,11.40
2022-11-25T07:38:16.074Z,11.40
2022-11-25T07:40:44.177Z,11.40
2022-11-25T07:43:12.312Z,11.40
2022-11-25T07:45:40.471Z,11.40
2022-11-25T07:48:11.652Z,11.60
2022-11-25T07:50:41.092Z,11.40
2022-11-25T07:53:09.237Z,11.40
2022-11-25T07:55:37.740Z,11.40
2022-11-25T07:58:05.854Z,11.50
2022-11-25T08:00:33.947Z,11.50
2022-11-25T08:03:02.173Z,11.50
2022-11-25T08:05:30.421Z,11.50
2022-11-25T08:07:59.933Z,11.60
2022-11-25T08:10:28.124Z,11.70
2022-11-25T08:12:56.221Z,11.70
2022-11-25T08:15:24.350Z,11.70
2022-11-25T08:17:52.712Z,11.80
2022-11-25T08:20:21.056Z,11.80
2022-11-25T08:22:49.206Z,11.90
2022-11-25T08:25:18.853Z,11.90
2022-11-25T08:27:47.796Z,12.00
2022-11-25T08:30:16.545Z,12.10
2022-11-25T08:32:44.849Z,12.10
2022-11-25T08:35:13.339Z,12.20
2022-11-25T08:37:41.505Z,12.20
2022-11-25T08:40:10.803Z,12.20
2022-11-25T08:42:40.309Z,12.30
2022-11-25T08:45:09.725Z,12.30
2022-11-25T08:47:37.926Z,12.30
2022-11-25T08:50:07.292Z,12.30
2022-11-25T08:52:35.407Z,12.40
2022-11-25T08:55:03.558Z,12.40
2022-11-25T08:57:31.691Z,12.40
2022-11-25T09:00:01.148Z,12.40
2022-11-25T09:02:29.315Z,12.40
2022-11-25T09:04:57.456Z,12.40
2022-11-25T09:07:30.554Z,12.40
2022-11-25T09:09:59.469Z,12.50
2022-11-25T09:12:27.628Z,12.50
2022-11-25T09:14:55.692Z,12.50
2022-11-25T09:17:25.118Z,12.50
2022-11-25T09:19:53.235Z,12.50
2022-11-25T09:22:21.385Z,12.40
2022-11-25T09:24:49.942Z,12.50
2022-11-25T09:27:18.035Z,12.50
2022-11-25T09:29:46.164Z,12.40
2022-11-25T09:32:14.281Z,12.40
2022-11-25T09:34:43.788Z,12.40
2022-11-25T09:37:12.997Z,12.40
2022-11-25T09:39:41.278Z,12.40
2022-11-25T09:42:40.196Z,12.40
2022-11-25T09:45:34.255Z,12.40
2022-11-25T09:48:31.976Z,12.40
2022-11-25T09:51:07.713Z,12.40
2022-11-25T09:53:43.814Z,12.40
2022-11-25T09:56:20.075Z,12.30
2022-11-25T09:58:52.123Z,12.30
2022-11-25T10:01:23.535Z,12.30
2022-11-25T10:03:54.929Z,12.30
2022-11-25T10:06:25.873Z,12.30
2022-11-25T10:08:56.382Z,12.20
2022-11-25T10:11:34.119Z,12.20
2022-11-25T10:14:04.484Z,12.20
2022-11-25T10:16:36.884Z,12.10
2022-11-25T10:19:14.040Z,12.20
2022-11-25T10:21:43.623Z,12.20
2022-11-25T10:24:14.574Z,12.10
2022-11-25T10:26:45.146Z,12.10
2022-11-25T10:29:25.303Z,12.10
2022-11-25T10:31:58.285Z,12.10
2022-11-25T10:34:32.390Z,12.10
2022-11-25T10:37:02.263Z,12.10
2022-11-25T10:39:32.028Z,12.10
2022-11-25T10:42:03.472Z,12.10
2022-11-25T10:44:33.537Z,12.10
2022-11-25T10:47:24.723Z,12.00
2022-11-25T10:50:04.714Z,12.10
2022-11-25T10:52:37.879Z,12.10
2022-11-25T10:55:11.795Z,12.10
2022-11-25T10:57:39.993Z,12.10
2022-11-25T11:00:24.868Z,12.10
2022-11-25T11:02:53.016Z,12.10
2022-11-25T11:05:24.431Z,12.10
2022-11-25T11:08:17.333Z,12.10
2022-11-25T11:10:45.787Z,12.10
2022-11-25T11:13:26.309Z,12.10
2022-11-25T11:15:55.144Z,12.10
2022-11-25T11:18:27.336Z,12.10
2022-11-25T11:20:56.849Z,12.20
2022-11-25T11:23:26.442Z,12.20
2022-11-25T11:26:00.616Z,12.20
2022-11-25T11:28:39.589Z,12.20
2022-11-25T11:31:09.251Z,12.20
2022-11-25T11:33:41.109Z,12.30
2022-11-25T11:36:26.014Z,12.30
2022-11-25T11:38:57.754Z,12.30
2022-11-25T11:41:35.623Z,12.40
2022-11-25T11:44:13.144Z,12.40
2022-11-25T11:47:06.406Z,12.40
2022-11-25T11:50:04.125Z,12.50
2022-11-25T11:52:41.862Z,12.50
2022-11-25T11:55:33.255Z,12.60
2022-11-25T11:58:06.107Z,12.60
2022-11-25T12:00:40.059Z,12.70
2022-11-25T12:03:14.045Z,12.80
2022-11-25T12:05:42.199Z,12.80
2022-11-25T12:08:13.230Z,12.90
2022-11-25T12:10:44.809Z,12.90
2022-11-25T12:13:20.535Z,13.00
2022-11-25T12:15:53.119Z,13.00
2022-11-25T12:18:42.547Z,13.10
2022-11-25T12:21:14.693Z,13.00
2022-11-25T12:23:46.071Z,13.10
2022-11-25T12:26:21.985Z,13.10
2022-11-25T12:28:54.399Z,13.10
2022-11-25T12:31:25.876Z,13.00
2022-11-25T12:34:02.898Z,13.00
2022-11-25T12:36:35.169Z,13.00
2022-11-25T12:39:05.405Z,13.10
2022-11-25T12:41:41.949Z,13.10
2022-11-25T12:44:15.843Z,13.10
2022-11-25T12:46:46.611Z,13.10
2022-11-25T12:49:19.901Z,13.20
2022-11-25T12:52:09.255Z,13.20
2022-11-25T12:54:53.356Z,13.30
2022-11-25T12:58:18.955Z,13.40
2022-11-25T13:01:39.004Z,13.40
2022-11-25T13:04:48.865Z,13.40
2022-11-25T13:07:28.258Z,13.40
2022-11-25T13:10:44.711Z,13.50
2022-11-25T13:13:32.550Z,13.40
2022-11-25T13:16:02.991Z,13.50
2022-11-25T13:18:33.241Z,13.50
2022-11-25T13:21:07.679Z,13.50
2022-11-25T13:23:50.604Z,13.50
2022-11-25T13:26:51.833Z,13.50
2022-11-25T13:30:02.784Z,13.50
2022-11-25T13:32:42.301Z,13.50
2022-11-25T13:35:39.277Z,13.50
2022-11-25T13:38:39.949Z,13.50
2022-11-25T13:41:37.824Z,13.50
2022-11-25T13:44:07.849Z,13.50
2022-11-25T13:46:40.625Z,13.50
2022-11-25T13:49:28.114Z,13.50
2022-11-25T13:51:57.590Z,13.60
2022-11-25T13:54:32.453Z,13.80
2022-11-25T13:57:20.891Z,14.10
2022-11-25T13:59:57.876Z,14.50
2022-11-25T14:02:49.690Z,14.80
2022-11-25T14:05:51.392Z,15.20
2022-11-25T14:08:31.575Z,15.50
2022-11-25T14:11:22.163Z,15.90
2022-11-25T14:14:20.114Z,16.20
2022-11-25T14:17:04.487Z,16.40
2022-11-25T14:19:56.282Z,16.70
2022-11-25T14:22:44.541Z,16.90
2022-11-25T14:25:17.942Z,17.10
2022-11-25T14:27:47.523Z,17.30
2022-11-25T14:30:16.280Z,17.30
2022-11-25T14:32:46.357Z,17.40
2022-11-25T14:35:16.618Z,17.60
2022-11-25T14:37:48.998Z,17.70
2022-11-25T14:40:20.576Z,17.80
2022-11-25T14:42:51.137Z,17.80
2022-11-25T14:45:24.439Z,17.70
2022-11-25T14:47:52.566Z,17.60
2022-11-25T14:50:36.764Z,17.50
2022-11-25T14:53:08.733Z,17.30
2022-11-25T14:55:36.995Z,17.10
2022-11-25T14:58:05.111Z,17.00
2022-11-25T15:00:34.782Z,16.90
2022-11-25T15:03:04.766Z,16.90
2022-11-25T15:05:34.309Z,16.80
2022-11-25T15:08:03.827Z,16.80
2022-11-25T15:10:42.359Z,16.70
2022-11-25T15:13:15.312Z,16.60
2022-11-25T15:15:46.790Z,16.50
2022-11-25T15:18:19.531Z,16.30
2022-11-25T15:20:49.836Z,16.20
2022-11-25T15:23:21.288Z,16.10
2022-11-25T15:25:54.100Z,16.00
2022-11-25T15:28:22.254Z,15.90
2022-11-25T15:30:58.369Z,15.80
2022-11-25T15:33:26.747Z,15.70
2022-11-25T15:35:54.862Z,15.60
2022-11-25T15:38:41.923Z,15.50
2022-11-25T15:41:33.352Z,15.40
2022-11-25T15:44:02.584Z,15.30
2022-11-25T15:46:30.963Z,15.30
2022-11-25T15:49:00.071Z,15.20
2022-11-25T15:51:35.614Z,15.10
2022-11-25T15:54:07.582Z,15.00
2022-11-25T15:56:38.899Z,14.90
2022-11-25T15:59:07.044Z,14.80
2022-11-25T16:01:35.230Z,14.70
2022-11-25T16:04:18.760Z,14.60
2022-11-25T16:06:55.135Z,14.50
2022-11-25T16:09:25.312Z,14.40
2022-11-25T16:11:54.849Z,14.30
2022-11-25T16:14:30.641Z,14.20
2022-11-25T16:17:02.019Z,14.20
2022-11-25T16:19:36.507Z,14.20
2022-11-25T16:22:06.047Z,14.00
2022-11-25T16:24:49.673Z,14.00
2022-11-25T16:27:23.956Z,13.90
2022-11-25T16:29:57.196Z,13.80
2022-11-25T16:32:27.325Z,13.80
2022-11-25T16:34:57.506Z,13.70
2022-11-25T16:37:25.708Z,13.60
2022-11-25T16:39:53.831Z,13.60
2022-11-25T16:42:23.541Z,13.50
2022-11-25T16:44:52.649Z,13.50
2022-11-25T16:47:21.827Z,13.40
2022-11-25T16:49:50.115Z,13.50
2022-11-25T16:52:18.289Z,13.30
2022-11-25T16:54:47.405Z,13.30
2022-11-25T16:57:19.288Z,13.30
2022-11-25T16:59:52.144Z,13.30
2022-11-25T17:02:24.264Z,13.30
2022-11-25T17:04:52.483Z,13.30
2022-11-25T17:07:36.421Z,13.30
2022-11-25T17:10:05.110Z,13.30
2022-11-25T17:12:34.435Z,13.30
2022-11-25T17:15:05.493Z,13.30
2022-11-25T17:17:33.920Z,13.30
2022-11-25T17:20:02.382Z,13.30
2022-11-25T17:22:36.063Z,13.30
2022-11-25T17:25:07.771Z,13.30
2022-11-25T17:27:35.916Z,13.30
2022-11-25T17:30:08.669Z,13.30
2022-11-25T17:32:36.799Z,13.30
2022-11-25T17:35:05.581Z,13.30
2022-11-25T17:37:33.881Z,13.30
2022-11-25T17:40:02.019Z,13.30
2022-11-25T17:42:31.580Z,13.30
2022-11-25T17:44:59.687Z,13.30
2022-11-25T17:47:29.318Z,13.30
2022-11-25T17:49:57.839Z,13.30
2022-11-25T17:52:26.038Z,13.30
2022-11-25T17:54:54.141Z,13.30
2022-11-25T17:57:23.263Z,13.40
2022-11-25T17:59:51.410Z,13.40
2022-11-25T18:02:20.504Z,13.40
2022-11-25T18:04:50.102Z,13.40
2022-11-25T18:07:18.326Z,13.40
2022-11-25T18:09:46.503Z,13.40
2022-11-25T18:12:18.379Z,13.40
2022-11-25T18:14:46.601Z,13.30
2022-11-25T18:17:17.199Z,13.30
2022-11-25T18:19:48.681Z,13.30
2022-11-25T18:22:21.178Z,13.30
2022-11-25T18:24:49.338Z,13.20
2022-11-25T18:27:22.343Z,13.20
2022-11-25T18:29:50.766Z,13.20
2022-11-25T18:32:18.883Z,13.30
2022-11-25T18:34:48.005Z,13.20
2022-11-25T18:37:16.120Z,13.20
2022-11-25T18:39:46.423Z,13.20
2022-11-25T18:42:21.961Z,13.20
2022-11-25T18:44:50.110Z,13.30
2022-11-25T18:47:18.178Z,13.30
2022-11-25T18:49:49.803Z,13.20
2022-11-25T18:52:20.618Z,13.30
2022-11-25T18:54:50.115Z,13.30
2022-11-25T18:57:18.305Z,13.20
2022-11-25T18:59:49.990Z,13.20
2022-11-25T19:02:24.321Z,13.20
2022-11-25T19:04:52.453Z,13.30
2022-11-25T19:07:20.758Z,13.20
2022-11-25T19:09:50.259Z,13.20
2022-11-25T19:12:20.200Z,13.30
2022-11-25T19:14:48.351Z,13.30
2022-11-25T19:17:20.302Z,13.30
2022-11-25T19:19:48.827Z,13.30
2022-11-25T19:22:18.741Z,13.40
2022-11-25T19:24:46.956Z,13.40
2022-11-25T19:27:18.662Z,13.40
2022-11-25T19:29:46.923Z,13.40
2022-11-25T19:32:20.171Z,13.40
2022-11-25T19:34:50.425Z,13.40
2022-11-25T19:37:20.491Z,13.40
2022-11-25T19:39:48.794Z,13.50
2022-11-25T19:42:18.425Z,13.40
2022-11-25T19:44:47.090Z,13.50
2022-11-25T19:47:18.040Z,13.50
2022-11-25T19:49:46.237Z,13.40
2022-11-25T19:52:16.835Z,13.40
2022-11-25T19:54:45.027Z,13.40
2022-11-25T19:57:18.296Z,13.40
2022-11-25T19:59:46.689Z,13.40
2022-11-25T20:02:16.183Z,13.40
2022-11-25T20:04:44.842Z,13.40
2022-11-25T20:07:13.322Z,13.40
2022-11-25T20:09:41.510Z,13.40
2022-11-25T20:12:23.211Z,13.30
2022-11-25T20:14:51.602Z,13.40
2022-11-25T20:17:26.535Z,13.30
2022-11-25T20:19:55.742Z,13.30
2022-11-25T20:22:27.112Z,13.30
2022-11-25T20:24:55.447Z,13.30
2022-11-25T20:27:27.438Z,13.30
2022-11-25T20:29:55.827Z,13.30
2022-11-25T20:32:27.798Z,13.30
2022-11-25T20:34:55.966Z,13.30
2022-11-25T20:37:24.622Z,13.30
2022-11-25T20:39:53.268Z,13.20
2022-11-25T20:42:21.737Z,13.20
2022-11-25T20:44:57.251Z,13.20
2022-11-25T20:47:27.285Z,13.20
2022-11-25T20:49:55.500Z,13.10
2022-11-25T20:52:28.826Z,13.10
2022-11-25T20:54:57.185Z,13.00
2022-11-25T20:57:25.309Z,13.00
2022-11-25T20:59:54.831Z,13.00
2022-11-25T21:02:23.025Z,12.90
2022-11-25T21:05:10.126Z,12.90
2022-11-25T21:07:58.602Z,12.90
2022-11-25T21:10:47.122Z,12.80
2022-11-25T21:13:36.005Z,12.80
2022-11-25T21:16:26.408Z,12.80
2022-11-25T21:19:14.894Z,12.70
2022-11-25T21:22:03.459Z,12.70
2022-11-25T21:24:51.873Z,12.60
2022-11-25T21:27:40.621Z,12.60
2022-11-25T21:30:31.113Z,12.60
2022-11-25T21:33:20.954Z,12.50
2022-11-25T21:36:13.991Z,12.50
2022-11-25T21:39:05.314Z,12.50
2022-11-25T21:41:54.004Z,12.50
2022-11-25T21:44:42.524Z,12.40
2022-11-25T21:47:31.133Z,12.40
2022-11-25T21:50:21.226Z,12.30
2022-11-25T21:53:09.669Z,12.30
2022-11-25T21:55:58.218Z,12.20
2022-11-25T21:58:46.666Z,12.20
2022-11-25T22:01:35.116Z,12.10
2022-11-25T22:04:23.916Z,12.10
2022-11-25T22:07:13.764Z,12.00
2022-11-25T22:10:02.170Z,12.00
2022-11-25T22:12:50.578Z,11.90
2022-11-25T22:15:38.975Z,11.80
2022-11-25T22:18:29.983Z,11.80
2022-11-25T22:21:18.389Z,11.70
2022-11-25T22:24:14.903Z,11.60
2022-11-25T22:27:06.467Z,11.50
2022-11-25T22:29:55.041Z,11.40
2022-11-25T22:32:43.505Z,11.30
2022-11-25T22:35:31.919Z,11.30
2022-11-25T22:38:20.439Z,11.20
2022-11-25T22:41:11.302Z,11.20
2022-11-25T22:43:59.787Z,11.10
2022-11-25T22:46:48.438Z,11.20
2022-11-25T22:49:41.200Z,11.00
2022-11-25T22:52:30.981Z,10.90
2022-11-25T22:55:21.928Z,10.90
2022-11-25T22:58:12.736Z,10.90
2022-11-25T23:01:01.238Z,10.80
2022-11-25T23:03:49.727Z,10.70
2022-11-25T23:06:38.134Z,10.70
2022-11-25T23:09:26.511Z,10.70
2022-11-25T23:12:15.482Z,10.60
2022-11-25T23:15:06.362Z,10.60
2022-11-25T23:17:55.655Z,10.60
2022-11-25T23:20:44.070Z,10.50
2022-11-25T23:23:32.491Z,10.50
2022-11-25T23:26:21.097Z,10.50
2022-11-25T23:29:09.610Z,10.40
2022-11-25T23:31:59.574Z,10.40
2022-11-25T23:34:49.354Z,10.40
2022-11-25T23:37:37.771Z,10.40
2022-11-25T23:40:26.527Z,10.40
2022-11-25T23:43:15.590Z,10.30
2022-11-25T23:46:03.995Z,10.30
2022-11-25T23:48:55.852Z,10.30
2022-11-25T23:51:44.290Z,10.30
2022-11-25T23:54:40.042Z,10.30
2022-11-25T23:57:32.682Z,10.30
